Main page
METAR-TAF:

METAR-TAF

Airports :

Montpellier, France

Montpellier–Méditerranée Airport

latitude: 43-35N, longitude: 003-58E, elevation: 5 m

Current weather observation

The report was made 15 minutes ago, at 03:30 UTC
Wind 5 kt from the West
Temperature 11°C
Humidity 71%
Pressure 1021 hPa
Visibility 10 km or more
no clouds below 1500 m and no cumulonimbus

METAR: LFMT 200330Z AUTO 28005KT CAVOK 11/06 Q1021 NOSIG

Time: 05:45 (03:45 UTC)

Forecast

The report was made 1 hour and 45 minutes ago, at 02:00 UTC
Forecast valid from 20 at 03 UTC to 21 at 03 UTC
Wind 5 kt from variable directions
Visibility 10 km or more
no clouds below 1500 m and no cumulonimbus
Becoming
from 20 at 13 UTC to 20 at 16 UTC
Wind 10 kt from the South/Southwest
Becoming
from 20 at 18 UTC to 20 at 21 UTC
Wind 3 kt from variable directions

TAF: LFMT 200200Z 2003/2103 VRB05KT CAVOK BECMG 2013/2016 20010KT BECMG 2018/2021 VRB03KT

Weather observations and forecasts of more than 4000 airports (METAR and TAF reports).

The available stations are represented by yellow and red dots on the map.

Hover mouse over dot to see the name of the station.

Then click to see weather observations and forecasts.

To change the map : click on the green buttons with a black cross to zoom in, on the green button with a dash to zoom out, or on the green arrows for adjacent maps.


METAR-TAF: